AirNav   Pilot Hours Calculator
 
 300 users online  

P09 Lakehill Airport
Mars, Pennsylvania, USA

GOING TO MARS?


FAA INFORMATION EFFECTIVE 25 FEBRUARY 2021

Location

FAA Identifier: P09
Lat/Long: 40-42-29.0700N 080-01-42.5100W
40-42.484500N 080-01.708500W
40.7080750,-80.0284750
(estimated)
Elevation: 1070 ft. / 326 m (estimated)
Variation: 08W (1985)
From city: 1 mile NW of MARS, PA
Time zone: UTC -5 (UTC -4 during Daylight Saving Time)
Zip code: 16046

Airport Operations

Airport use: Open to the public
Activation date: 03/1961
Control tower: no
ARTCC: CLEVELAND CENTER
FSS: ALTOONA FLIGHT SERVICE STATION
NOTAMs facility: AOO (NOTAM-D service available)
Attendance: UNATNDD
Wind indicator: yes
Segmented circle: no

Airport Communications

CTAF: 122.9
WX AWOS-3PT at BTP (5 nm NE): 121.450 (724-586-6434)
WX AWOS-3PT at PJC (8 nm NW): 118.45 (724-452-5304)
WX AWOS-A at 42PN (15 nm S): PHONE 412-442-2213
WX ASOS at PIT (16 nm SW): PHONE 412-472-0145
WX AWOS-3PT at BVI (17 nm W): 118.35 (724-843-1024)

Nearby radio navigation aids

VOR radial/distance  VOR name  Freq  Var
EWCr138/10.9ELLWOOD CITY VOR/DME115.8008W
AGCr010/25.8ALLEGHENY VOR/DME110.0009W
HLGr050/36.5WHEELING VOR/DME112.2007W

 
NDB name  Hdg/Dist  Freq  Var  ID
CASTLE146/25.827209WUCP ..- -.-. .--.

Airport Services

Airframe service: NONE
Powerplant service: NONE

Runway Information

Runway 5/23

Dimensions: 2850 x 75 ft. / 869 x 23 m
RWY WIDTH VARIES FROM 75 FT TO 85 FT.
Surface: turf, in fair condition
Operational restrictions: MARKED WITH ORANGE CONES.
RUNWAY 5  RUNWAY 23
Latitude: 40-42.304167N40-42.664833N
Longitude: 080-01.906000W080-01.511000W
Elevation: 1030.0 ft.1030.0 ft.
Traffic pattern: leftleft
Runway heading: 048 magnetic, 040 true228 magnetic, 220 true
Displaced threshold: 660 ft.no
Markings: NSTD, in fair conditionNSTD, in fair condition
Obstructions: 9 ft. road
RWY 05 HAS +53 FT TREES, DSTC 366 FT, 106 FT LEFT; 19:1 BASED ON 660 FT DTHR.
40 ft. trees, 249 ft. from runway, 104 ft. left of centerline, 6:1 slope to clear
RWY 23 236 FT HIGH HILL/TREES APRXLY 0.5 MILES FM RWY END.

Helipad H1

Dimensions: 30 x 30 ft. / 9 x 9 m
Surface: turf/gravel
Latitude: 40-42.327333N
Longitude: 080-01.852833W
Elevation: 1070.0 ft.
Traffic pattern: leftleft

Airport Ownership and Management from official FAA records

Ownership: Privately-owned
Owner: LAKEHILL AIRPORT LLC
110 LAKEHILL LN
MARS, PA 16046
Phone 412-414-3380
Manager: KEITH SCHNEIDER
110 LAKEHILL LN
MARS, PA 16046
Phone 412-414-3380

Airport Operational Statistics

Aircraft based on the field: 3
Single engine airplanes: 2
Helicopters: 1
    
Aircraft operations: avg 51/month *
66% local general aviation
33% transient general aviation
2% military
* for 12-month period ending 31 August 2020

Additional Remarks

A30A-05 TREES IN APCH SURFACE.
A30A-23 TREES IN APCH SURFACE.
ARPT CLSD WHEN SNOW ON RWY.
RWY 05/23 SOFT DURG WET & THAWING PERIODS.
DEER & GROUND HOGS ON & INVOF RWY.
FOR CD CTC PITTSBURGH APCH AT 412-472-5591
HELI IS FOR PVT-USE ONLY.

Instrument Procedures

There are no published instrument procedures at P09.

Some nearby airports with instrument procedures:

KBTP - Pittsburgh/Butler Regional Airport (5 nm NE)
KPJC - Zelienople Municipal Airport (8 nm NW)
KPIT - Pittsburgh International Airport (16 nm SW)
KBVI - Beaver County Airport (17 nm W)
6P7 - McVille Airport (20 nm E)
 
Loc | Ops | Rwys | IFR | FBO | Links
Com | Nav | Svcs | Stats | Notes
Area around P09 (Lakehill Airport)
 
Road maps at: MapQuest Bing Google
 
Aerial photo
WARNING: Photo may not be current or correct
Aerial photo of P09 (Lakehill Airport)
Photo by Gary Snyder.
Taken in May 2009

Do you have a better or more recent aerial photo of Lakehill Airport that you would like to share? If so, please send us your photo.

 
Sectional chart

 
Airport distance calculator
Flying to Lakehill Airport? Find the distance to fly.

From to P09

Sunrise and sunset
Times for 06-Mar-2021
 Local
(UTC-5)
 Zulu
(UTC)
Morning civil twilight06:2011:20
Sunrise06:4711:47
Sunset18:1623:16
Evening civil twilight18:4323:43

Current date and time
Zulu (UTC)  06-Mar-2021 08:50:08
Local (UTC-5)  06-Mar-2021 03:50:08
 
METAR
KBTP 
5nm NE 
060756Z AUTO 30003KT 10SM FEW028 M03/M08 A3009 RMK AO2 SLP212 T10331078 FZRANO
KPJC 
8nm NW 
060755Z AUTO 00000KT 10SM SCT032 M05/M07 A3012 RMK AO2
KPIT 
17nm SW 
060751Z 29008KT 10SM FEW045 M05/M09 A3010 RMK AO2 SLP215 T10501094
KBVI 
17nm W 
060755Z AUTO 31007KT 10SM CLR M02/M07 A3010 RMK AO2 T10251070
TAF
KPIT 
17nm SW 
060535Z 0606/0712 29008KT P6SM SCT060 FM061600 30009G17KT P6SM SCT100 FM062300 33007KT P6SM SCT150 FM070600 00000KT P6SM SKC
KBVI 
17nm W 
060535Z 0606/0706 30006KT P6SM SCT050 FM061800 30009KT P6SM SKC FM070300 00000KT P6SM SCT250
NOTAMs
Click for the latest NOTAMs
NOTAMs are issued by the DoD/FAA and will open in a separate window not controlled by AirNav.

 

 
 

Would you like to see your business listed on this page?

 If your business provides an interesting product or service to pilots, flight crews, aircraft, or users of the Lakehill Airport, you should consider listing it here.  To start the listing process, click on the button below
 
Add a business
 

Other Pages about Lakehill Airport

Update a link
 
Copyright © AirNav, LLC. All rights reserved. Privacy Policy  Contact